Time;durP1;ratioP1;P1;durP2;ratioP2;P2;SDS_P1;SDS_P2;PMS_P1;PMS_P2;Temp;Humidity;BMP_temperature;BMP_pressure;BME280_temperature;BME280_humidity;BME280_pressure;Samples;Min_cycle;Max_cycle;Signal;HPM_P1;HPM_P2
2022/03/30 00:00:19;;;;;;;5.03;3.10;;;;;;;8.24;53.68;100493.06;5021403;28;20178;-77
2022/03/30 00:02:44;;;;;;;11.00;4.00;;;;;;;7.59;56.12;100494.63;5019946;28;20182;-78
2022/03/30 00:05:09;;;;;;;5.27;3.83;;;;;;;7.49;56.08;100492.69;5020720;28;20195;-77
2022/03/30 00:07:35;;;;;;;4.60;3.57;;;;;;;8.05;54.80;100482.41;5021263;28;20435;-78
2022/03/30 00:10:02;;;;;;;7.17;3.60;;;;;;;7.57;55.96;100486.78;5020808;28;20179;-78
2022/03/30 00:12:28;;;;;;;8.43;3.60;;;;;;;7.67;56.02;100482.66;5020696;28;20170;-77
2022/03/30 00:14:53;;;;;;;9.40;5.90;;;;;;;7.81;55.65;100477.69;5021391;28;20422;-78
2022/03/30 00:17:19;;;;;;;7.57;3.90;;;;;;;7.41;56.87;100477.88;5020755;28;20175;-77
2022/03/30 00:19:44;;;;;;;9.13;3.80;;;;;;;6.72;58.93;100469.63;5020476;28;20189;-78
2022/03/30 00:22:10;;;;;;;9.83;3.60;;;;;;;7.60;56.98;100473.00;5020977;28;20215;-77
2022/03/30 00:24:36;;;;;;;8.80;4.50;;;;;;;7.45;56.85;100470.13;5020303;28;20175;-79
2022/03/30 00:27:02;;;;;;;6.93;3.43;;;;;;;7.44;56.91;100466.66;5020417;28;20444;-78
2022/03/30 00:29:28;;;;;;;6.73;3.73;;;;;;;7.58;57.90;100467.78;5020609;28;20464;-77
2022/03/30 00:31:54;;;;;;;9.37;3.83;;;;;;;7.52;56.71;100470.28;5020156;28;20812;-77
2022/03/30 00:34:19;;;;;;;8.90;3.63;;;;;;;7.64;56.48;100455.78;5020421;28;20223;-77
2022/03/30 00:36:44;;;;;;;9.00;3.53;;;;;;;7.46;56.54;100457.19;5020932;28;20507;-77
2022/03/30 00:39:10;;;;;;;6.40;3.63;;;;;;;7.37;57.70;100460.50;5020225;28;20178;-77
2022/03/30 00:41:35;;;;;;;8.43;3.90;;;;;;;7.18;57.90;100459.28;5019965;28;20178;-77
2022/03/30 00:44:14;;;;;;;9.50;4.33;;;;;;;7.45;57.26;100460.63;5020406;28;20536;-77
2022/03/30 00:46:42;;;;;;;5.93;3.90;;;;;;;7.40;57.33;100459.66;5019636;28;20181;-77
2022/03/30 00:49:08;;;;;;;15.03;3.53;;;;;;;7.21;57.69;100454.16;5019808;28;20519;-78
2022/03/30 00:51:33;;;;;;;8.07;4.07;;;;;;;7.53;57.25;100456.44;5019880;28;20433;-77
2022/03/30 00:53:58;;;;;;;11.23;5.60;;;;;;;7.72;56.60;100452.44;5019313;28;20198;-78
2022/03/30 00:56:25;;;;;;;11.67;6.53;;;;;;;7.65;56.92;100454.94;5019962;28;20179;-76
2022/03/30 00:58:50;;;;;;;8.40;4.23;;;;;;;7.36;57.39;100456.16;5019431;28;20521;-78
2022/03/30 01:01:16;;;;;;;9.23;5.93;;;;;;;7.47;57.50;100447.69;5019726;28;20417;-77
2022/03/30 01:03:41;;;;;;;6.00;3.63;;;;;;;7.35;57.55;100449.22;5020096;28;20273;-76
2022/03/30 01:06:06;;;;;;;5.33;3.80;;;;;;;7.44;57.68;100447.63;5019381;28;20186;-77
2022/03/30 01:08:32;;;;;;;5.80;3.97;;;;;;;7.31;57.65;100437.03;5019456;28;20269;-78
2022/03/30 01:10:59;;;;;;;10.37;4.23;;;;;;;7.75;56.51;100442.13;5019763;28;20171;-76
2022/03/30 01:13:24;;;;;;;10.80;4.83;;;;;;;7.30;57.48;100443.06;5020170;28;20182;-80
2022/03/30 01:15:50;;;;;;;4.40;3.53;;;;;;;7.38;57.54;100441.50;5019735;28;20422;-76
2022/03/30 01:18:15;;;;;;;7.17;3.63;;;;;;;7.73;56.62;100435.16;5019787;28;20191;-77
2022/03/30 01:20:40;;;;;;;4.63;3.60;;;;;;;7.56;57.55;100427.09;5019687;28;20201;-77
2022/03/30 01:23:06;;;;;;;16.13;4.57;;;;;;;7.40;57.72;100426.84;5019285;28;20178;-77
2022/03/30 01:25:31;;;;;;;6.23;4.20;;;;;;;7.50;57.23;100424.41;5019958;28;20167;-78
2022/03/30 01:27:57;;;;;;;8.27;3.47;;;;;;;7.23;58.18;100418.75;5018403;28;20195;-78
2022/03/30 01:33:07;;;;;;;8.90;4.83;;;;;;;7.55;57.50;100414.97;5019259;28;20484;-77
2022/03/30 01:35:33;;;;;;;7.40;3.40;;;;;;;7.62;57.07;100414.25;5019173;28;20417;-78
2022/03/30 01:37:59;;;;;;;9.80;3.80;;;;;;;7.57;58.00;100405.50;5035186;28;20410;-75
2022/03/30 01:40:24;;;;;;;5.00;3.20;;;;;;;7.17;58.59;100410.00;5018961;28;20419;-78
2022/03/30 01:42:50;;;;;;;5.40;3.73;;;;;;;7.21;58.58;100401.41;5019170;28;20457;-77
2022/03/30 01:45:16;;;;;;;9.10;4.07;;;;;;;7.15;58.85;100406.50;5019338;28;20225;-76
2022/03/30 01:47:48;;;;;;;9.23;4.00;;;;;;;7.20;58.93;100397.09;5018945;28;20228;-76
2022/03/30 01:50:13;;;;;;;11.97;3.83;;;;;;;7.40;58.36;100392.25;5019026;28;20500;-78
2022/03/30 01:52:38;;;;;;;10.23;4.40;;;;;;;7.83;56.59;100392.06;5021705;28;20831;-78
2022/03/30 01:55:04;;;;;;;6.27;4.03;;;;;;;7.57;57.58;100383.00;5019080;28;20206;-76
2022/03/30 01:57:29;;;;;;;10.87;3.70;;;;;;;7.63;57.47;100383.97;5018750;28;20250;-76
2022/03/30 01:59:55;;;;;;;5.53;4.00;;;;;;;7.59;57.35;100375.28;5019452;28;20410;-77
2022/03/30 02:02:21;;;;;;;4.73;3.50;;;;;;;7.73;57.04;100384.13;5018586;28;20476;-76
2022/03/30 02:04:47;;;;;;;5.53;3.47;;;;;;;7.82;56.89;100379.94;5017817;28;20225;-77
2022/03/30 02:07:12;;;;;;;7.83;4.10;;;;;;;7.72;56.86;100377.19;5019033;28;20800;-77
2022/03/30 02:09:38;;;;;;;6.40;3.80;;;;;;;7.60;57.53;100382.19;5018554;28;20564;-76
2022/03/30 02:12:05;;;;;;;12.40;3.87;;;;;;;7.37;57.53;100381.81;5034088;28;20182;-78
2022/03/30 02:14:30;;;;;;;8.77;4.17;;;;;;;7.78;57.21;100391.13;5018229;28;20171;-75
2022/03/30 02:16:55;;;;;;;6.60;3.17;;;;;;;7.57;57.93;100384.75;5018490;28;20690;-77
2022/03/30 02:19:21;;;;;;;6.37;4.10;;;;;;;7.55;58.09;100391.63;5018264;28;20225;-78
2022/03/30 02:21:46;;;;;;;3.73;3.00;;;;;;;7.79;57.40;100382.50;5018637;28;20167;-77
2022/03/30 02:24:11;;;;;;;7.03;3.67;;;;;;;7.28;58.25;100392.03;5018691;28;20197;-78
2022/03/30 02:26:37;;;;;;;7.20;3.40;;;;;;;7.33;59.01;100387.81;5018845;28;20178;-78
2022/03/30 02:29:02;;;;;;;9.23;3.73;;;;;;;7.18;59.17;100383.22;5019072;28;20442;-77
2022/03/30 02:31:28;;;;;;;7.77;3.67;;;;;;;7.18;59.91;100378.91;5019291;28;20257;-77
2022/03/30 02:33:53;;;;;;;10.23;3.30;;;;;;;7.34;59.09;100377.44;5018231;28;20532;-77
2022/03/30 02:36:18;;;;;;;5.00;3.50;;;;;;;7.63;58.64;100381.38;5018752;28;20475;-76
2022/03/30 02:38:44;;;;;;;4.63;3.00;;;;;;;7.44;59.51;100378.47;5018696;28;20182;-76
2022/03/30 02:41:10;;;;;;;7.43;3.47;;;;;;;7.75;58.49;100368.59;5018254;28;20221;-76
2022/03/30 02:43:36;;;;;;;12.20;4.00;;;;;;;7.35;58.96;100374.03;5018932;28;20599;-76
2022/03/30 02:46:02;;;;;;;6.20;4.23;;;;;;;6.41;60.89;100374.84;5018266;28;20413;-76
2022/03/30 02:48:33;;;;;;;5.50;2.87;;;;;;;6.43;60.70;100368.00;5018111;28;20199;-76
2022/03/30 02:51:07;;;;;;;5.83;3.17;;;;;;;6.71;60.18;100365.94;5018656;28;20409;-77
2022/03/30 02:53:33;;;;;;;5.90;3.70;;;;;;;6.84;59.85;100360.16;5018380;28;20430;-77
2022/03/30 02:56:00;;;;;;;12.60;4.00;;;;;;;7.00;58.67;100360.44;5018290;28;20508;-78
2022/03/30 02:58:25;;;;;;;4.97;3.50;;;;;;;7.07;58.49;100357.97;5033936;28;20781;-76
2022/03/30 03:00:51;;;;;;;5.87;2.70;;;;;;;7.32;57.99;100352.34;5018012;28;20552;-76
2022/03/30 03:03:16;;;;;;;5.03;3.00;;;;;;;7.46;58.05;100348.25;5018529;28;20313;-78
2022/03/30 03:05:42;;;;;;;5.20;3.00;;;;;;;6.71;59.20;100356.47;5018668;28;20450;-77
2022/03/30 03:08:09;;;;;;;6.60;3.43;;;;;;;7.29;59.07;100345.38;5018180;28;20214;-76
2022/03/30 03:10:39;;;;;;;7.17;3.10;;;;;;;7.12;58.85;100349.41;5017997;28;20274;-76
2022/03/30 03:13:05;;;;;;;7.03;4.17;;;;;;;7.20;59.35;100347.84;5018052;28;20413;-75
2022/03/30 03:15:31;;;;;;;7.90;3.67;;;;;;;7.60;58.79;100343.28;5018150;28;20410;-76
2022/03/30 03:17:57;;;;;;;6.70;3.23;;;;;;;7.12;59.39;100346.81;5021956;28;20398;-77
2022/03/30 03:20:23;;;;;;;8.87;3.80;;;;;;;7.02;59.52;100348.38;5021585;28;20418;-77
2022/03/30 03:22:48;;;;;;;10.77;4.00;;;;;;;7.44;58.38;100347.34;5021019;28;20842;-78
2022/03/30 03:25:14;;;;;;;5.17;2.60;;;;;;;6.07;61.02;100354.31;5021760;28;20171;-78
2022/03/30 03:27:39;;;;;;;9.97;3.57;;;;;;;5.52;62.13;100363.34;5021872;28;20500;-77
2022/03/30 03:30:06;;;;;;;4.70;3.80;;;;;;;5.61;64.06;100357.53;5022325;28;20225;-77
2022/03/30 03:32:31;;;;;;;4.93;2.90;;;;;;;5.70;63.35;100353.44;5021836;28;20197;-76
2022/03/30 03:34:56;;;;;;;5.83;3.07;;;;;;;6.20;62.80;100349.41;5021196;28;20469;-75
2022/03/30 03:37:22;;;;;;;6.43;2.90;;;;;;;6.73;61.17;100346.13;5021649;28;20171;-75
2022/03/30 03:39:47;;;;;;;7.47;3.20;;;;;;;6.87;60.58;100349.88;5021838;28;20434;-75
2022/03/30 03:42:13;;;;;;;8.20;3.50;;;;;;;6.31;61.04;100355.66;5021292;28;20271;-76
2022/03/30 03:44:39;;;;;;;5.97;3.37;;;;;;;6.55;62.05;100346.66;5021055;28;20175;-76
2022/03/30 03:47:07;;;;;;;4.20;3.00;;;;;;;6.97;60.78;100345.72;5021621;28;20556;-76
2022/03/30 03:49:32;;;;;;;7.53;3.10;;;;;;;7.24;59.90;100340.13;5020538;28;20457;-78
2022/03/30 03:51:58;;;;;;;8.20;3.33;;;;;;;6.88;61.15;100348.13;5021697;28;20513;-77
2022/03/30 03:54:23;;;;;;;3.90;2.73;;;;;;;6.49;62.42;100341.34;5024276;28;20167;-78
2022/03/30 03:56:48;;;;;;;4.20;2.87;;;;;;;5.94;63.43;100347.09;5022283;28;20179;-77
2022/03/30 03:59:14;;;;;;;6.77;2.93;;;;;;;6.47;63.38;100345.59;5021077;28;20175;-77
2022/03/30 04:01:39;;;;;;;9.10;3.00;;;;;;;6.40;62.47;100344.66;5021551;28;20171;-77
2022/03/30 04:04:05;;;;;;;4.07;3.27;;;;;;;6.64;63.25;100346.81;5021295;28;20278;-77
2022/03/30 04:06:31;;;;;;;5.77;3.07;;;;;;;6.31;63.86;100341.88;5021185;28;20163;-77
2022/03/30 04:08:56;;;;;;;7.00;3.07;;;;;;;6.50;62.81;100343.09;5021426;28;20737;-77
2022/03/30 04:11:22;;;;;;;7.30;2.97;;;;;;;5.25;65.94;100348.03;5020781;28;20181;-78
2022/03/30 04:13:47;;;;;;;6.27;2.70;;;;;;;5.74;65.86;100344.91;5020529;28;20171;-78
2022/03/30 04:16:16;;;;;;;6.87;3.30;;;;;;;4.58;68.58;100345.44;5021444;28;20171;-75
2022/03/30 04:18:41;;;;;;;5.73;2.50;;;;;;;5.18;68.37;100347.91;5019766;28;20280;-77
2022/03/30 04:21:06;;;;;;;5.17;2.87;;;;;;;5.11;67.37;100351.16;5020323;28;20493;-77
2022/03/30 04:23:31;;;;;;;9.53;2.90;;;;;;;5.02;69.10;100356.06;5020895;28;20162;-77
2022/03/30 04:25:57;;;;;;;5.23;2.83;;;;;;;4.78;68.56;100361.50;5020376;28;20166;-76
2022/03/30 04:28:22;;;;;;;7.93;3.27;;;;;;;4.45;71.06;100359.72;5019598;28;20592;-77
2022/03/30 04:30:47;;;;;;;7.00;3.10;;;;;;;5.20;69.40;100358.28;5020949;28;20187;-77
2022/03/30 04:33:13;;;;;;;3.93;2.83;;;;;;;5.85;68.79;100357.22;5020211;28;20258;-77
2022/03/30 04:35:38;;;;;;;4.40;3.00;;;;;;;5.15;67.66;100358.13;5020547;28;20254;-78
2022/03/30 04:38:05;;;;;;;3.17;2.60;;;;;;;4.82;70.46;100363.31;5020840;28;20181;-78
2022/03/30 04:40:31;;;;;;;3.50;3.20;;;;;;;5.23;70.20;100353.19;5020235;28;20171;-77
2022/03/30 04:42:56;;;;;;;6.70;2.70;;;;;;;4.59;70.19;100360.09;5020193;28;20409;-77
2022/03/30 04:45:23;;;;;;;6.03;3.33;;;;;;;5.17;70.49;100347.88;5020808;28;20213;-78
2022/03/30 04:47:49;;;;;;;5.30;3.23;;;;;;;5.85;67.92;100352.06;5019829;28;20509;-76
2022/03/30 04:50:14;;;;;;;5.40;3.67;;;;;;;6.26;67.25;100351.25;5019967;28;20179;-76
2022/03/30 04:52:41;;;;;;;6.87;3.40;;;;;;;6.30;65.91;100351.31;5020184;28;20516;-77
2022/03/30 04:55:07;;;;;;;4.93;3.50;;;;;;;6.38;66.36;100351.50;5019243;28;20166;-77
2022/03/30 04:57:33;;;;;;;8.00;3.47;;;;;;;6.45;65.59;100348.16;5020244;28;20749;-77
2022/03/30 04:59:58;;;;;;;8.40;3.20;;;;;;;6.12;66.09;100349.22;5020192;28;20449;-78
2022/03/30 05:02:23;;;;;;;7.23;3.57;;;;;;;6.14;67.17;100344.94;5017808;28;20428;-77
2022/03/30 05:04:49;;;;;;;7.07;3.40;;;;;;;6.12;66.69;100346.66;5019337;28;20175;-76
2022/03/30 05:07:14;;;;;;;6.30;3.40;;;;;;;6.66;65.90;100345.16;5019660;28;20175;-77
2022/03/30 05:09:40;;;;;;;7.53;3.50;;;;;;;6.70;65.69;100349.53;5019415;28;20219;-77
2022/03/30 05:12:06;;;;;;;5.40;3.20;;;;;;;6.83;65.17;100342.00;5019501;28;20186;-78
2022/03/30 05:14:32;;;;;;;7.60;3.30;;;;;;;6.48;65.31;100343.06;5019396;28;20696;-76
2022/03/30 05:16:58;;;;;;;7.57;2.80;;;;;;;6.52;65.42;100342.28;5019516;28;20175;-76
2022/03/30 05:19:23;;;;;;;5.20;3.60;;;;;;;5.99;66.71;100340.31;5019392;28;20823;-76
2022/03/30 05:21:49;;;;;;;4.97;3.47;;;;;;;6.13;67.02;100338.03;5019931;28;20193;-76
2022/03/30 05:24:14;;;;;;;7.70;3.87;;;;;;;6.17;67.34;100338.97;5019192;28;20186;-76
2022/03/30 05:26:39;;;;;;;11.17;4.20;;;;;;;5.52;68.16;100345.25;5019292;28;20175;-76
2022/03/30 05:29:05;;;;;;;5.07;3.20;;;;;;;5.99;67.84;100342.91;5019449;28;20195;-77
2022/03/30 05:31:30;;;;;;;6.67;3.43;;;;;;;5.77;67.97;100353.59;5019245;28;20241;-77
2022/03/30 05:33:55;;;;;;;7.43;3.40;;;;;;;6.26;66.27;100348.66;5018820;28;20255;-76
2022/03/30 05:36:21;;;;;;;10.00;3.20;;;;;;;6.24;65.01;100338.28;5019415;28;20171;-75
2022/03/30 05:38:48;;;;;;;7.20;3.60;;;;;;;4.62;69.12;100345.56;5018941;28;20201;-77
2022/03/30 05:41:14;;;;;;;3.07;2.70;;;;;;;4.95;68.93;100344.75;5019041;28;20185;-77
2022/03/30 05:43:39;;;;;;;5.40;3.03;;;;;;;5.38;67.65;100340.63;5019373;28;20422;-75
2022/03/30 05:46:05;;;;;;;4.70;3.23;;;;;;;4.18;71.06;100358.06;5018910;28;20551;-77
2022/03/30 05:48:30;;;;;;;6.87;3.20;;;;;;;4.54;71.17;100352.22;5018446;28;20203;-76
2022/03/30 05:50:56;;;;;;;5.47;3.40;;;;;;;5.16;70.45;100348.69;5019371;28;20413;-76
2022/03/30 05:53:22;;;;;;;4.97;4.10;;;;;;;4.85;69.76;100343.59;5018838;28;20187;-77
2022/03/30 05:55:47;;;;;;;5.07;3.37;;;;;;;4.37;71.30;100349.16;5019201;28;20405;-77
2022/03/30 05:58:14;;;;;;;5.27;3.57;;;;;;;4.71;71.91;100348.41;5019350;28;20171;-77
2022/03/30 06:00:40;;;;;;;3.90;3.50;;;;;;;4.56;73.21;100348.00;5018456;28;20171;-77
2022/03/30 06:03:05;;;;;;;5.20;3.27;;;;;;;4.69;72.09;100351.78;5018943;28;20900;-77
2022/03/30 06:05:31;;;;;;;4.33;3.20;;;;;;;4.67;72.63;100346.56;5019346;28;20417;-77
2022/03/30 06:07:59;;;;;;;8.40;3.73;;;;;;;5.14;71.47;100345.19;5018507;28;20203;-78
2022/03/30 06:10:27;;;;;;;7.27;4.07;;;;;;;5.88;69.26;100341.78;5017707;28;20166;-78
2022/03/30 06:12:54;;;;;;;4.00;3.43;;;;;;;6.25;68.49;100345.16;5003647;28;20430;-78
2022/03/30 06:15:19;;;;;;;7.33;3.57;;;;;;;6.35;67.32;100343.66;5018905;28;20508;-76
2022/03/30 06:17:46;;;;;;;3.20;2.90;;;;;;;6.39;66.53;100345.47;5013233;28;20752;-75
2022/03/30 06:20:13;;;;;;;8.33;3.30;;;;;;;6.21;66.74;100340.78;5004332;28;20452;-78
2022/03/30 06:22:40;;;;;;;7.70;4.10;;;;;;;6.58;66.40;100344.13;4999971;28;20417;-76
2022/03/30 06:25:06;;;;;;;4.03;3.60;;;;;;;11.88;64.45;100322.66;5017670;28;20421;-73
2022/03/30 06:27:31;;;;;;;7.43;4.07;;;;;;;13.64;56.58;100310.31;5024854;28;20425;-72
2022/03/30 06:29:57;;;;;;;6.40;3.93;;;;;;;9.80;52.87;100324.88;5024117;28;20467;-73
2022/03/30 06:32:22;;;;;;;5.50;3.50;;;;;;;8.45;58.29;100333.19;5020615;28;20520;-73
2022/03/30 06:34:47;;;;;;;7.80;4.00;;;;;;;7.66;60.84;100338.19;5026204;28;20226;-73
2022/03/30 06:37:12;;;;;;;7.10;3.70;;;;;;;7.18;62.72;100346.94;5006997;28;20191;-73
2022/03/30 06:39:38;;;;;;;6.53;4.00;;;;;;;6.94;63.56;100345.66;5018207;28;20186;-72
2022/03/30 06:42:05;;;;;;;4.27;3.80;;;;;;;7.08;64.13;100344.16;5017939;28;20174;-72
2022/03/30 06:44:31;;;;;;;6.60;5.27;;;;;;;7.19;64.04;100346.09;5036032;28;20257;-74
2022/03/30 06:46:58;;;;;;;9.67;4.37;;;;;;;6.78;63.59;100348.78;5031222;28;20506;-73
2022/03/30 06:49:23;;;;;;;7.70;3.97;;;;;;;6.68;65.98;100346.03;5016203;28;20469;-73
2022/03/30 06:51:48;;;;;;;11.00;6.60;;;;;;;6.99;65.03;100337.97;5019992;28;20835;-73
2022/03/30 06:54:13;;;;;;;34.07;20.73;;;;;;;6.56;65.48;100343.22;5022440;28;20171;-74
2022/03/30 06:56:39;;;;;;;6.37;4.50;;;;;;;6.66;65.54;100339.09;5021898;28;20178;-73
2022/03/30 06:59:05;;;;;;;6.60;4.27;;;;;;;7.06;65.67;100345.88;5019939;28;20210;-72
2022/03/30 07:01:30;;;;;;;4.63;3.70;;;;;;;6.57;65.53;100339.78;5027377;28;20175;-74
2022/03/30 07:03:56;;;;;;;9.07;5.63;;;;;;;6.79;65.49;100340.19;5021384;28;20185;-73
2022/03/30 07:06:21;;;;;;;7.23;5.53;;;;;;;6.97;65.60;100343.13;5018922;28;20179;-73
2022/03/30 07:11:30;;;;;;;6.90;3.90;;;;;;;6.30;67.71;100343.56;5017154;28;20571;-73
2022/03/30 07:13:57;;;;;;;5.73;3.83;;;;;;;6.97;65.43;100340.53;5020815;28;20430;-73
2022/03/30 07:16:23;;;;;;;5.10;4.23;;;;;;;7.12;64.73;100339.03;5020416;28;20205;-73
2022/03/30 07:18:49;;;;;;;5.60;4.10;;;;;;;7.38;64.96;100342.09;5020998;28;20437;-74
2022/03/30 07:21:14;;;;;;;7.60;4.40;;;;;;;7.53;63.62;100341.44;5020642;28;20417;-75
2022/03/30 07:23:40;;;;;;;6.13;3.80;;;;;;;7.14;62.89;100342.53;5008931;28;20449;-76
2022/03/30 07:26:05;;;;;;;8.27;3.50;;;;;;;7.05;63.90;100333.75;5020215;28;20183;-77
2022/03/30 07:28:31;;;;;;;5.63;3.43;;;;;;;6.90;64.36;100338.66;5019977;28;20206;-74
2022/03/30 07:30:56;;;;;;;6.97;4.20;;;;;;;6.99;63.98;100333.63;5020701;28;20179;-73
2022/03/30 07:33:23;;;;;;;4.53;3.50;;;;;;;7.67;63.50;100336.47;5004135;28;20473;-76
2022/03/30 07:35:49;;;;;;;4.20;3.20;;;;;;;6.89;63.82;100342.13;5029772;28;20548;-74
2022/03/30 07:38:19;;;;;;;4.67;2.97;;;;;;;6.77;63.74;100336.72;5020383;28;20417;-70
2022/03/30 07:40:46;;;;;;;5.53;3.07;;;;;;;6.12;65.47;100338.03;5019891;28;20516;-71
2022/03/30 07:43:12;;;;;;;5.53;3.17;;;;;;;5.49;69.27;100340.00;5020113;28;20436;-71
2022/03/30 07:45:38;;;;;;;7.17;3.20;;;;;;;6.00;67.69;100336.91;5012144;28;20447;-70
2022/03/30 07:48:05;;;;;;;4.43;3.30;;;;;;;6.61;64.69;100336.41;5007214;28;20547;-72
2022/03/30 07:50:31;;;;;;;4.47;3.63;;;;;;;6.94;63.83;100331.81;5020548;28;20815;-73
2022/03/30 07:52:56;;;;;;;6.03;3.20;;;;;;;6.09;65.14;100330.16;5020704;28;20522;-74
2022/03/30 07:55:22;;;;;;;7.23;2.70;;;;;;;6.36;66.96;100325.56;5018293;28;20413;-77
2022/03/30 07:57:48;;;;;;;3.77;3.30;;;;;;;5.95;66.72;100338.47;5015769;28;20812;-75
2022/03/30 08:00:16;;;;;;;7.30;3.37;;;;;;;7.52;63.24;100329.31;5011402;28;20189;-71
2022/03/30 08:02:45;;;;;;;5.70;3.20;;;;;;;6.47;64.14;100327.47;5015557;28;20168;-71
2022/03/30 08:05:12;;;;;;;5.00;3.40;;;;;;;6.00;66.52;100330.84;5001162;28;20422;-71
2022/03/30 08:07:39;;;;;;;6.23;3.60;;;;;;;6.48;66.89;100330.13;5010565;28;20414;-72
2022/03/30 08:10:05;;;;;;;3.63;3.33;;;;;;;6.80;65.10;100326.41;5011260;28;20534;-71
2022/03/30 08:12:31;;;;;;;5.07;3.53;;;;;;;5.21;68.37;100335.06;5012210;28;20419;-70
2022/03/30 08:14:56;;;;;;;4.17;3.77;;;;;;;5.83;68.76;100335.63;5011995;28;20452;-72
2022/03/30 08:17:21;;;;;;;7.60;4.00;;;;;;;6.14;67.76;100329.41;5019244;28;20186;-71
2022/03/30 08:19:47;;;;;;;5.30;3.80;;;;;;;7.04;63.78;100321.63;5019270;28;20269;-71
2022/03/30 08:22:30;;;;;;;6.10;4.17;;;;;;;7.05;63.23;100322.53;5017576;28;20183;-73
2022/03/30 08:25:02;;;;;;;3.60;3.30;;;;;;;6.44;62.56;100319.66;5016916;28;20193;-74
2022/03/30 08:27:30;;;;;;;4.73;3.07;;;;;;;6.31;64.92;100329.78;5014029;28;20854;-73
2022/03/30 08:29:57;;;;;;;3.83;3.50;;;;;;;5.45;67.36;100333.88;5013301;28;20476;-74
2022/03/30 08:32:23;;;;;;;5.87;3.90;;;;;;;6.66;65.17;100323.56;5013774;28;20430;-71
2022/03/30 08:34:52;;;;;;;4.27;3.47;;;;;;;6.46;65.46;100324.03;5014397;28;20467;-71
2022/03/30 08:37:18;;;;;;;6.73;4.07;;;;;;;6.07;66.13;100328.44;5011630;28;20492;-73
2022/03/30 08:39:44;;;;;;;7.10;4.40;;;;;;;5.97;67.83;100329.03;5018739;28;20425;-72
2022/03/30 08:42:11;;;;;;;6.30;4.43;;;;;;;7.00;65.45;100322.44;5014591;28;21000;-69
2022/03/30 08:44:37;;;;;;;9.10;5.60;;;;;;;6.83;64.11;100326.44;5019174;28;20417;-71
2022/03/30 08:47:03;;;;;;;7.80;4.80;;;;;;;6.70;65.26;100325.38;5019035;28;20874;-73
2022/03/30 08:49:33;;;;;;;10.43;4.23;;;;;;;7.14;64.65;100324.41;5018975;28;20214;-71
2022/03/30 08:52:00;;;;;;;5.70;4.33;;;;;;;6.83;64.58;100327.34;5018790;28;20484;-71
2022/03/30 08:54:25;;;;;;;5.90;4.13;;;;;;;7.40;62.24;100324.81;5012553;28;20430;-73
2022/03/30 08:56:51;;;;;;;7.17;4.10;;;;;;;7.20;64.31;100317.59;5017045;28;20425;-72
2022/03/30 08:59:19;;;;;;;7.57;4.30;;;;;;;7.02;63.43;100327.63;5016605;28;20175;-76
2022/03/30 09:01:45;;;;;;;5.57;4.60;;;;;;;7.32;63.12;100319.53;5019193;28;20552;-73
2022/03/30 09:04:12;;;;;;;7.77;4.27;;;;;;;7.48;62.44;100324.94;5018935;28;20670;-73
2022/03/30 09:06:46;;;;;;;7.57;5.00;;;;;;;7.91;62.47;100322.97;5017144;28;20438;-72
2022/03/30 09:09:14;;;;;;;6.17;4.33;;;;;;;7.38;62.76;100326.53;5018884;28;20464;-73
2022/03/30 09:11:40;;;;;;;7.13;4.50;;;;;;;7.95;61.00;100319.56;5017889;28;20501;-71
2022/03/30 09:14:07;;;;;;;5.40;4.50;;;;;;;6.70;62.59;100334.00;5018335;28;20417;-71
2022/03/30 09:16:44;;;;;;;5.60;4.23;;;;;;;6.66;64.00;100328.75;5002455;28;20828;-73
2022/03/30 09:19:11;;;;;;;4.30;3.50;;;;;;;6.61;64.73;100326.03;5009168;28;20434;-72
2022/03/30 09:21:43;;;;;;;5.70;4.20;;;;;;;5.28;66.71;100330.06;5009860;28;20417;-72
2022/03/30 09:24:08;;;;;;;4.83;3.83;;;;;;;5.64;67.47;100321.41;5016668;28;20430;-71
2022/03/30 09:26:35;;;;;;;7.80;4.30;;;;;;;7.44;63.76;100312.78;5029778;28;20429;-72
2022/03/30 09:29:01;;;;;;;6.60;3.83;;;;;;;7.08;62.82;100310.47;5014699;28;20217;-71
2022/03/30 09:31:27;;;;;;;5.30;4.10;;;;;;;6.94;63.20;100319.75;5018361;28;20768;-70
2022/03/30 09:33:53;;;;;;;3.67;3.37;;;;;;;7.43;60.48;100314.50;5018389;28;20493;-72
2022/03/30 09:36:36;;;;;;;5.23;4.10;;;;;;;7.57;60.65;100309.53;5013998;28;20285;-73
2022/03/30 09:39:02;;;;;;;7.50;4.87;;;;;;;8.03;60.04;100307.56;5008123;28;20446;-77
2022/03/30 09:41:44;;;;;;;6.57;5.87;;;;;;;7.59;60.78;100313.88;5018169;28;20524;-75
2022/03/30 09:44:10;;;;;;;7.13;5.13;;;;;;;7.84;60.46;100300.38;5012847;28;20443;-75
2022/03/30 09:47:03;;;;;;;5.50;4.20;;;;;;;7.45;61.46;100309.34;5015004;28;20449;-73
2022/03/30 09:49:52;;;;;;;5.67;4.67;;;;;;;8.26;60.20;100296.59;5018243;28;20225;-75
2022/03/30 09:52:21;;;;;;;6.03;5.33;;;;;;;7.23;62.88;100309.00;5020841;28;20444;-72
2022/03/30 09:54:49;;;;;;;6.13;4.50;;;;;;;7.07;62.62;100310.47;5015183;28;20517;-73
2022/03/30 09:57:16;;;;;;;6.60;3.80;;;;;;;6.55;63.89;100307.81;5018164;28;20707;-71
2022/03/30 10:00:15;;;;;;;6.07;4.00;;;;;;;7.53;61.37;100300.81;5018070;28;20427;-75
2022/03/30 10:02:41;;;;;;;4.73;3.87;;;;;;;6.28;64.97;100306.44;4973165;28;20442;-75
2022/03/30 10:05:09;;;;;;;3.90;3.60;;;;;;;7.60;60.97;100301.78;5017084;28;20691;-74
2022/03/30 10:07:35;;;;;;;5.13;3.73;;;;;;;7.79;60.60;100302.91;5017706;28;20505;-74
2022/03/30 10:10:01;;;;;;;8.93;4.60;;;;;;;7.90;60.07;100301.34;5017916;28;20608;-69
2022/03/30 10:12:27;;;;;;;4.37;3.97;;;;;;;7.79;60.15;100299.44;5017836;28;20209;-70
2022/03/30 10:14:53;;;;;;;6.40;4.30;;;;;;;8.10;59.43;100287.75;5017786;28;20186;-71
2022/03/30 10:17:19;;;;;;;4.87;4.30;;;;;;;8.12;59.35;100287.75;5018084;28;20876;-71
2022/03/30 10:19:46;;;;;;;4.53;4.13;;;;;;;8.43;59.13;100286.41;5007821;28;20513;-70
2022/03/30 10:22:40;;;;;;;6.07;4.20;;;;;;;7.65;59.38;100284.56;4998671;28;20473;-72
2022/03/30 10:25:33;;;;;;;8.20;4.20;;;;;;;7.27;60.20;100284.88;4997576;28;20419;-70
2022/03/30 10:28:20;;;;;;;8.00;4.20;;;;;;;8.09;59.21;100275.59;5005772;28;20417;-70
2022/03/30 10:30:50;;;;;;;4.40;4.00;;;;;;;7.99;59.63;100276.38;5017861;28;20433;-70
2022/03/30 10:33:28;;;;;;;7.03;4.87;;;;;;;7.53;61.24;100274.00;5017914;28;20532;-70
2022/03/30 10:35:54;;;;;;;5.77;4.40;;;;;;;6.44;63.88;100283.41;5016325;28;20467;-71
2022/03/30 10:38:19;;;;;;;5.40;4.07;;;;;;;6.14;65.17;100276.78;5016028;28;20417;-71
2022/03/30 10:40:45;;;;;;;5.90;4.20;;;;;;;6.84;64.37;100281.56;5005973;28;20253;-71
2022/03/30 10:43:13;;;;;;;4.60;3.40;;;;;;;13.34;60.80;100241.63;4998460;28;20225;-68
2022/03/30 10:45:44;;;;;;;7.70;4.73;;;;;;;9.30;55.47;100256.03;5008440;28;20456;-71
2022/03/30 10:48:13;;;;;;;6.50;5.20;;;;;;;8.79;56.33;100260.81;5017786;28;20878;-71
2022/03/30 10:50:42;;;;;;;6.33;4.83;;;;;;;8.79;57.32;100255.63;5017769;28;20437;-70
2022/03/30 10:53:33;;;;;;;10.57;5.60;;;;;;;8.75;57.10;100255.59;5017952;28;20453;-69
2022/03/30 10:56:14;;;;;;;4.40;4.00;;;;;;;7.60;60.63;100257.66;5016871;28;20847;-71
2022/03/30 10:59:00;;;;;;;8.20;3.80;;;;;;;8.61;57.35;100253.72;5017686;28;20417;-71
2022/03/30 11:01:28;;;;;;;6.40;3.70;;;;;;;8.93;55.35;100251.41;5017879;28;20417;-70
2022/03/30 11:04:03;;;;;;;4.50;3.53;;;;;;;7.59;58.45;100248.16;5017731;28;20425;-70
2022/03/30 11:06:40;;;;;;;3.90;3.17;;;;;;;7.15;60.35;100259.59;5013755;28;20788;-70
2022/03/30 11:09:09;;;;;;;4.07;3.77;;;;;;;8.33;57.45;100249.06;5010918;28;20495;-72
2022/03/30 11:11:45;;;;;;;4.47;3.93;;;;;;;8.87;56.95;100248.75;5012570;28;20433;-72
2022/03/30 11:14:33;;;;;;;5.50;3.97;;;;;;;8.75;56.28;100252.09;5013154;28;20452;-71
2022/03/30 11:17:02;;;;;;;4.83;3.70;;;;;;;9.13;55.80;100246.34;4996827;28;20525;-72
2022/03/30 11:19:30;;;;;;;4.30;3.90;;;;;;;8.36;56.03;100243.03;5014708;28;20441;-70
2022/03/30 11:22:02;;;;;;;5.13;3.57;;;;;;;8.70;55.24;100244.28;5031953;28;20438;-71
2022/03/30 11:24:30;;;;;;;4.97;3.50;;;;;;;8.47;55.67;100245.75;5003366;28;20601;-72
2022/03/30 11:26:59;;;;;;;5.87;4.27;;;;;;;9.04;55.32;100241.09;5000303;28;20433;-75
2022/03/30 11:29:48;;;;;;;5.93;4.30;;;;;;;8.85;55.98;100238.34;5013816;28;20465;-71
2022/03/30 11:32:28;;;;;;;4.30;3.77;;;;;;;7.73;57.99;100249.22;5004664;28;20446;-72
2022/03/30 11:34:58;;;;;;;4.90;3.50;;;;;;;7.44;58.12;100246.19;4997833;28;20948;-72
2022/03/30 11:37:28;;;;;;;6.03;4.93;;;;;;;8.25;56.37;100235.13;5005967;28;20484;-71